Home   Weather   France   Angoulême   Past weeks
Flag for France

Past Weather in Angoulême, Charente, France — Yesterday and Last 2 Weeks

Currently: 52 °F. Partly cloudy. (Weather station: Cognac Airport, France). See more current weather

Past Weather in Angoulême — Graph

°F

Angoulême Temperature Yesterday

Maximum temperature yesterday: 52 °F (at 2:00 pm)
Minimum temperature yesterday: 41 °F (at 12:30 am)
Average temperature yesterday: 47 °F

High & Low Weather Summary for the Past Weeks

 TemperatureHumidityPressure
High70 °F (Nov 13, 3:00 pm)100% (Nov 13, 5:30 am)30.45 "Hg (Nov 13, 5:30 am)
Low37 °F (Nov 19, 7:00 am)53% (Nov 13, 3:00 pm)29.45 "Hg (Nov 16, 6:00 pm)
Average51 °F87%29.90 "Hg
* Reported Nov 13 12:00 am — Nov 28 12:30 am, Angoulême. Weather by CustomWeather, © 2022

Note: Actual official high and low records may vary slightly from our data, if they occured in-between our weather recording intervals... More about our weather records

Angoulême Weather History for the Previous 24 Hours

Scroll right to see more
 ConditionsComfort  
Time TempWeatherWind HumidityBarometerVisibility
12:30 am
Mon, Nov 28
52 °FPartly cloudy.7 mph94%29.98 "HgN/A
12:00 am50 °FLight rain. Partly cloudy.9 mph100%29.98 "HgN/A
11:30 pm
Sun, Nov 27
50 °FLight rain. Mostly cloudy.7 mph94%29.98 "HgN/A
11:00 pm50 °FLight rain. Fog.6 mph94%29.98 "Hg3 mi
10:30 pm48 °FLight rain. Mostly cloudy.9 mph100%29.98 "HgN/A
10:00 pm48 °FLight rain. Overcast.8 mph94%29.98 "HgN/A
9:30 pm50 °FLight rain. Passing clouds.3 mph88%29.98 "HgN/A
9:00 pm50 °FLight rain. Mostly cloudy.1 mph82%29.98 "HgN/A
8:30 pm50 °FPartly cloudy.1 mph82%29.98 "HgN/A
8:00 pm50 °FMostly cloudy.3 mph76%29.98 "HgN/A
7:30 pm48 °FOvercast.2 mph82%30.01 "HgN/A
7:00 pm48 °FClear.No wind82%30.01 "Hg10 mi
6:30 pm48 °FClear.2 mph82%30.01 "Hg10 mi
6:00 pm48 °FClear.3 mph82%30.01 "Hg10 mi
5:30 pm48 °FClear.7 mph82%30.01 "Hg10 mi
5:00 pm50 °FOvercast.9 mph76%30.01 "HgN/A
4:30 pm52 °FSunny.8 mph72%30.01 "Hg10 mi
4:00 pm52 °FSunny.7 mph72%30.04 "Hg10 mi
3:30 pm52 °FSunny.12 mph72%30.04 "Hg10 mi
3:00 pm52 °FSunny.12 mph72%30.04 "Hg10 mi
2:30 pm52 °FSunny.10 mph72%30.04 "Hg10 mi
2:00 pm52 °FSunny.9 mph72%30.07 "Hg10 mi
1:30 pm50 °FSunny.9 mph76%30.07 "Hg10 mi
1:00 pm50 °FSunny.8 mph76%30.09 "Hg10 mi
12:30 pm50 °FSunny.8 mph76%30.09 "Hg10 mi
12:00 pm50 °FSunny.12 mph76%30.12 "Hg10 mi
11:30 am48 °FSunny.9 mph82%30.12 "Hg10 mi
11:00 am48 °FSunny.7 mph82%30.15 "Hg10 mi
10:30 am46 °FSunny.8 mph82%30.15 "Hg10 mi
10:00 am45 °FSunny.9 mph87%30.15 "Hg10 mi
9:30 am45 °FSunny.9 mph87%30.15 "Hg10 mi
9:00 am43 °FPartly sunny.7 mph93%30.15 "HgN/A
8:30 am41 °FSunny.6 mph100%30.15 "Hg10 mi
8:00 am43 °FClear.2 mph93%30.18 "Hg10 mi
7:30 am43 °FClear.7 mph93%30.18 "Hg10 mi
7:00 am43 °FClear.3 mph93%30.18 "Hg10 mi
6:30 am43 °FClear.5 mph93%30.18 "Hg10 mi
6:00 am43 °FClear.6 mph93%30.18 "Hg10 mi
5:30 am43 °FClear.3 mph93%30.21 "Hg10 mi
5:00 am43 °FClear.3 mph93%30.21 "Hg10 mi
4:30 am43 °FClear.3 mph93%30.21 "Hg10 mi
4:00 am43 °FClear.3 mph93%30.21 "Hg10 mi
3:30 am41 °FClear.5 mph100%30.21 "Hg10 mi
3:00 am41 °FClear.5 mph93%30.24 "Hg10 mi
2:30 am43 °FClear.1 mph93%30.24 "Hg10 mi
2:00 am43 °FClear.5 mph93%30.24 "Hg10 mi
Weather by CustomWeather, © 2022

See weather overview